sensor_id;sensor_type;location;lat;lon;timestamp;P1;durP1;ratioP1;P2;durP2;ratioP2
12519;SDS011;6325;49.540;8.364;2023-05-07T00:00:46;1.77;;;1.67;;
12519;SDS011;6325;49.540;8.364;2023-05-07T00:03:13;1.80;;;1.70;;
12519;SDS011;6325;49.540;8.364;2023-05-07T00:05:40;1.70;;;1.60;;
12519;SDS011;6325;49.540;8.364;2023-05-07T00:08:08;1.63;;;1.63;;
12519;SDS011;6325;49.540;8.364;2023-05-07T00:10:35;1.77;;;1.67;;
12519;SDS011;6325;49.540;8.364;2023-05-07T00:13:02;1.88;;;1.77;;
12519;SDS011;6325;49.540;8.364;2023-05-07T00:15:29;1.80;;;1.70;;
12519;SDS011;6325;49.540;8.364;2023-05-07T00:17:56;2.00;;;1.90;;
12519;SDS011;6325;49.540;8.364;2023-05-07T00:20:24;1.73;;;1.70;;
12519;SDS011;6325;49.540;8.364;2023-05-07T00:22:51;1.90;;;1.80;;
12519;SDS011;6325;49.540;8.364;2023-05-07T00:25:19;2.08;;;1.98;;
12519;SDS011;6325;49.540;8.364;2023-05-07T00:27:46;1.90;;;1.80;;
12519;SDS011;6325;49.540;8.364;2023-05-07T00:30:13;1.63;;;1.63;;
12519;SDS011;6325;49.540;8.364;2023-05-07T00:32:40;1.88;;;1.77;;
12519;SDS011;6325;49.540;8.364;2023-05-07T00:35:07;1.85;;;1.75;;
12519;SDS011;6325;49.540;8.364;2023-05-07T00:37:34;1.88;;;1.77;;
12519;SDS011;6325;49.540;8.364;2023-05-07T00:40:02;2.10;;;1.90;;
12519;SDS011;6325;49.540;8.364;2023-05-07T00:42:33;2.00;;;1.90;;
12519;SDS011;6325;49.540;8.364;2023-05-07T00:45:01;1.90;;;1.80;;
12519;SDS011;6325;49.540;8.364;2023-05-07T00:47:28;1.90;;;1.80;;
12519;SDS011;6325;49.540;8.364;2023-05-07T00:49:56;2.00;;;1.90;;
12519;SDS011;6325;49.540;8.364;2023-05-07T00:52:23;2.00;;;1.90;;
12519;SDS011;6325;49.540;8.364;2023-05-07T00:54:52;2.22;;;2.10;;
12519;SDS011;6325;49.540;8.364;2023-05-07T00:57:20;2.00;;;1.88;;
12519;SDS011;6325;49.540;8.364;2023-05-07T00:59:49;2.10;;;2.00;;
12519;SDS011;6325;49.540;8.364;2023-05-07T01:02:17;2.10;;;2.00;;
12519;SDS011;6325;49.540;8.364;2023-05-07T01:04:44;2.20;;;2.10;;
12519;SDS011;6325;49.540;8.364;2023-05-07T01:07:11;1.92;;;1.83;;
12519;SDS011;6325;49.540;8.364;2023-05-07T01:09:38;2.00;;;1.90;;
12519;SDS011;6325;49.540;8.364;2023-05-07T01:12:06;2.20;;;2.10;;
12519;SDS011;6325;49.540;8.364;2023-05-07T01:14:34;2.20;;;2.00;;
12519;SDS011;6325;49.540;8.364;2023-05-07T01:17:02;2.00;;;1.90;;
12519;SDS011;6325;49.540;8.364;2023-05-07T01:19:29;2.00;;;1.90;;
12519;SDS011;6325;49.540;8.364;2023-05-07T01:21:59;1.95;;;1.85;;
12519;SDS011;6325;49.540;8.364;2023-05-07T01:24:31;2.03;;;1.92;;
12519;SDS011;6325;49.540;8.364;2023-05-07T01:26:59;2.00;;;1.90;;
12519;SDS011;6325;49.540;8.364;2023-05-07T01:29:27;1.80;;;1.70;;
12519;SDS011;6325;49.540;8.364;2023-05-07T01:31:54;1.90;;;1.80;;
12519;SDS011;6325;49.540;8.364;2023-05-07T01:34:24;1.90;;;1.80;;
12519;SDS011;6325;49.540;8.364;2023-05-07T01:36:53;1.90;;;1.80;;
12519;SDS011;6325;49.540;8.364;2023-05-07T01:39:22;1.98;;;1.88;;
12519;SDS011;6325;49.540;8.364;2023-05-07T01:41:53;1.88;;;1.77;;
12519;SDS011;6325;49.540;8.364;2023-05-07T01:44:20;1.90;;;1.80;;
12519;SDS011;6325;49.540;8.364;2023-05-07T01:46:48;1.90;;;1.80;;
12519;SDS011;6325;49.540;8.364;2023-05-07T01:49:16;1.80;;;1.70;;
12519;SDS011;6325;49.540;8.364;2023-05-07T01:51:43;1.80;;;1.70;;
12519;SDS011;6325;49.540;8.364;2023-05-07T01:54:11;1.90;;;1.80;;
12519;SDS011;6325;49.540;8.364;2023-05-07T01:56:39;2.15;;;1.80;;
12519;SDS011;6325;49.540;8.364;2023-05-07T01:59:07;1.92;;;1.83;;
12519;SDS011;6325;49.540;8.364;2023-05-07T02:01:34;1.90;;;1.80;;
12519;SDS011;6325;49.540;8.364;2023-05-07T02:04:01;1.90;;;1.80;;
12519;SDS011;6325;49.540;8.364;2023-05-07T02:06:28;1.83;;;1.73;;
12519;SDS011;6325;49.540;8.364;2023-05-07T02:08:55;2.00;;;1.90;;
12519;SDS011;6325;49.540;8.364;2023-05-07T02:11:22;2.00;;;1.90;;
12519;SDS011;6325;49.540;8.364;2023-05-07T02:13:50;1.80;;;1.70;;
12519;SDS011;6325;49.540;8.364;2023-05-07T02:16:19;2.00;;;1.90;;
12519;SDS011;6325;49.540;8.364;2023-05-07T02:18:46;2.10;;;2.00;;
12519;SDS011;6325;49.540;8.364;2023-05-07T02:21:13;2.03;;;1.83;;
12519;SDS011;6325;49.540;8.364;2023-05-07T02:23:40;2.10;;;2.00;;
12519;SDS011;6325;49.540;8.364;2023-05-07T02:26:07;2.05;;;1.95;;
12519;SDS011;6325;49.540;8.364;2023-05-07T02:28:34;1.70;;;1.60;;
12519;SDS011;6325;49.540;8.364;2023-05-07T02:31:02;1.90;;;1.80;;
12519;SDS011;6325;49.540;8.364;2023-05-07T02:33:30;1.73;;;1.73;;
12519;SDS011;6325;49.540;8.364;2023-05-07T02:36:04;2.10;;;2.00;;
12519;SDS011;6325;49.540;8.364;2023-05-07T02:38:32;2.20;;;2.10;;
12519;SDS011;6325;49.540;8.364;2023-05-07T02:40:59;2.10;;;2.00;;
12519;SDS011;6325;49.540;8.364;2023-05-07T02:43:26;1.87;;;1.77;;
12519;SDS011;6325;49.540;8.364;2023-05-07T02:45:59;2.20;;;2.00;;
12519;SDS011;6325;49.540;8.364;2023-05-07T02:48:27;1.90;;;1.80;;
12519;SDS011;6325;49.540;8.364;2023-05-07T02:50:55;2.00;;;1.90;;
12519;SDS011;6325;49.540;8.364;2023-05-07T02:53:22;2.00;;;1.90;;
12519;SDS011;6325;49.540;8.364;2023-05-07T02:55:51;1.80;;;1.70;;
12519;SDS011;6325;49.540;8.364;2023-05-07T02:58:18;2.00;;;1.90;;
12519;SDS011;6325;49.540;8.364;2023-05-07T03:00:45;1.92;;;1.83;;
12519;SDS011;6325;49.540;8.364;2023-05-07T03:03:12;2.10;;;2.00;;
12519;SDS011;6325;49.540;8.364;2023-05-07T03:05:41;2.00;;;1.90;;
12519;SDS011;6325;49.540;8.364;2023-05-07T03:08:09;2.10;;;2.00;;
12519;SDS011;6325;49.540;8.364;2023-05-07T03:10:36;2.13;;;1.93;;
12519;SDS011;6325;49.540;8.364;2023-05-07T03:13:03;1.95;;;1.85;;
12519;SDS011;6325;49.540;8.364;2023-05-07T03:15:30;2.07;;;1.97;;
12519;SDS011;6325;49.540;8.364;2023-05-07T03:17:57;1.90;;;1.80;;
12519;SDS011;6325;49.540;8.364;2023-05-07T03:20:24;2.10;;;2.00;;
12519;SDS011;6325;49.540;8.364;2023-05-07T03:22:51;2.30;;;2.20;;
12519;SDS011;6325;49.540;8.364;2023-05-07T03:25:19;2.10;;;2.00;;
12519;SDS011;6325;49.540;8.364;2023-05-07T03:27:46;2.10;;;2.00;;
12519;SDS011;6325;49.540;8.364;2023-05-07T03:30:12;2.20;;;2.10;;
12519;SDS011;6325;49.540;8.364;2023-05-07T03:32:39;2.10;;;2.00;;
12519;SDS011;6325;49.540;8.364;2023-05-07T03:35:06;2.10;;;2.00;;
12519;SDS011;6325;49.540;8.364;2023-05-07T03:37:33;2.07;;;1.97;;
12519;SDS011;6325;49.540;8.364;2023-05-07T03:40:00;2.20;;;2.10;;
12519;SDS011;6325;49.540;8.364;2023-05-07T03:42:28;2.00;;;1.90;;
12519;SDS011;6325;49.540;8.364;2023-05-07T03:44:55;1.98;;;1.88;;
12519;SDS011;6325;49.540;8.364;2023-05-07T03:47:22;1.95;;;1.85;;
12519;SDS011;6325;49.540;8.364;2023-05-07T03:49:48;2.00;;;1.90;;
12519;SDS011;6325;49.540;8.364;2023-05-07T03:52:17;2.03;;;1.90;;
12519;SDS011;6325;49.540;8.364;2023-05-07T03:54:48;2.00;;;1.90;;
12519;SDS011;6325;49.540;8.364;2023-05-07T03:57:15;2.03;;;1.90;;
12519;SDS011;6325;49.540;8.364;2023-05-07T03:59:43;1.90;;;1.80;;
12519;SDS011;6325;49.540;8.364;2023-05-07T04:02:10;1.95;;;1.85;;
12519;SDS011;6325;49.540;8.364;2023-05-07T04:04:37;2.30;;;2.20;;
12519;SDS011;6325;49.540;8.364;2023-05-07T04:07:04;1.90;;;1.80;;
12519;SDS011;6325;49.540;8.364;2023-05-07T04:09:32;1.90;;;1.80;;
12519;SDS011;6325;49.540;8.364;2023-05-07T04:11:59;2.10;;;2.00;;
12519;SDS011;6325;49.540;8.364;2023-05-07T04:14:26;2.20;;;2.00;;
12519;SDS011;6325;49.540;8.364;2023-05-07T04:16:54;2.25;;;2.15;;
12519;SDS011;6325;49.540;8.364;2023-05-07T04:19:21;2.10;;;2.00;;
12519;SDS011;6325;49.540;8.364;2023-05-07T04:21:47;1.90;;;1.80;;
12519;SDS011;6325;49.540;8.364;2023-05-07T04:24:14;1.98;;;1.88;;
12519;SDS011;6325;49.540;8.364;2023-05-07T04:26:41;2.00;;;1.90;;
12519;SDS011;6325;49.540;8.364;2023-05-07T04:29:08;2.00;;;1.90;;
12519;SDS011;6325;49.540;8.364;2023-05-07T04:31:35;2.10;;;2.00;;
12519;SDS011;6325;49.540;8.364;2023-05-07T04:34:03;2.05;;;1.95;;
12519;SDS011;6325;49.540;8.364;2023-05-07T04:36:30;2.17;;;2.08;;
12519;SDS011;6325;49.540;8.364;2023-05-07T04:38:58;1.95;;;1.85;;
12519;SDS011;6325;49.540;8.364;2023-05-07T04:41:25;1.98;;;1.85;;
12519;SDS011;6325;49.540;8.364;2023-05-07T04:43:52;2.08;;;1.98;;
12519;SDS011;6325;49.540;8.364;2023-05-07T04:46:19;2.35;;;2.20;;
12519;SDS011;6325;49.540;8.364;2023-05-07T04:48:46;2.00;;;1.90;;
12519;SDS011;6325;49.540;8.364;2023-05-07T04:51:14;2.10;;;2.00;;
12519;SDS011;6325;49.540;8.364;2023-05-07T04:53:41;2.22;;;2.13;;
12519;SDS011;6325;49.540;8.364;2023-05-07T04:56:08;2.20;;;2.10;;
12519;SDS011;6325;49.540;8.364;2023-05-07T04:58:35;2.30;;;2.10;;
12519;SDS011;6325;49.540;8.364;2023-05-07T05:01:02;2.08;;;1.98;;
12519;SDS011;6325;49.540;8.364;2023-05-07T05:03:29;2.03;;;1.92;;
12519;SDS011;6325;49.540;8.364;2023-05-07T05:05:56;2.33;;;2.13;;
12519;SDS011;6325;49.540;8.364;2023-05-07T05:08:25;2.10;;;2.00;;
12519;SDS011;6325;49.540;8.364;2023-05-07T05:10:52;2.13;;;2.03;;
12519;SDS011;6325;49.540;8.364;2023-05-07T05:13:19;2.50;;;2.30;;
12519;SDS011;6325;49.540;8.364;2023-05-07T05:15:46;2.60;;;2.40;;
12519;SDS011;6325;49.540;8.364;2023-05-07T05:18:13;2.00;;;1.90;;
12519;SDS011;6325;49.540;8.364;2023-05-07T05:20:40;2.13;;;2.00;;
12519;SDS011;6325;49.540;8.364;2023-05-07T05:23:07;2.10;;;2.00;;
12519;SDS011;6325;49.540;8.364;2023-05-07T05:25:35;2.30;;;2.13;;
12519;SDS011;6325;49.540;8.364;2023-05-07T05:28:04;2.87;;;2.30;;
12519;SDS011;6325;49.540;8.364;2023-05-07T05:30:31;2.00;;;1.90;;
12519;SDS011;6325;49.540;8.364;2023-05-07T05:32:58;2.17;;;2.08;;
12519;SDS011;6325;49.540;8.364;2023-05-07T05:35:25;2.00;;;1.90;;
12519;SDS011;6325;49.540;8.364;2023-05-07T05:37:51;2.17;;;2.08;;
12519;SDS011;6325;49.540;8.364;2023-05-07T05:40:18;2.20;;;2.10;;
12519;SDS011;6325;49.540;8.364;2023-05-07T05:42:46;2.00;;;1.90;;
12519;SDS011;6325;49.540;8.364;2023-05-07T05:45:13;2.30;;;2.10;;
12519;SDS011;6325;49.540;8.364;2023-05-07T05:47:40;1.90;;;1.80;;
12519;SDS011;6325;49.540;8.364;2023-05-07T05:50:07;2.20;;;2.10;;
12519;SDS011;6325;49.540;8.364;2023-05-07T05:52:34;2.10;;;2.00;;
12519;SDS011;6325;49.540;8.364;2023-05-07T05:55:01;2.20;;;2.10;;
12519;SDS011;6325;49.540;8.364;2023-05-07T05:57:28;2.00;;;1.90;;
12519;SDS011;6325;49.540;8.364;2023-05-07T05:59:56;2.08;;;1.98;;
12519;SDS011;6325;49.540;8.364;2023-05-07T06:02:23;2.08;;;1.98;;
12519;SDS011;6325;49.540;8.364;2023-05-07T06:04:49;2.78;;;2.20;;
12519;SDS011;6325;49.540;8.364;2023-05-07T06:07:16;1.95;;;1.85;;
12519;SDS011;6325;49.540;8.364;2023-05-07T06:09:43;2.30;;;2.20;;
12519;SDS011;6325;49.540;8.364;2023-05-07T06:12:10;2.40;;;2.20;;
12519;SDS011;6325;49.540;8.364;2023-05-07T06:14:37;2.00;;;1.90;;
12519;SDS011;6325;49.540;8.364;2023-05-07T06:17:05;2.28;;;2.10;;
12519;SDS011;6325;49.540;8.364;2023-05-07T06:19:32;2.10;;;2.00;;
12519;SDS011;6325;49.540;8.364;2023-05-07T06:22:00;2.10;;;2.00;;
12519;SDS011;6325;49.540;8.364;2023-05-07T06:24:27;2.28;;;2.17;;
12519;SDS011;6325;49.540;8.364;2023-05-07T06:26:54;2.30;;;2.17;;
12519;SDS011;6325;49.540;8.364;2023-05-07T06:29:23;2.00;;;1.90;;
12519;SDS011;6325;49.540;8.364;2023-05-07T06:31:51;2.00;;;1.90;;
12519;SDS011;6325;49.540;8.364;2023-05-07T06:34:19;2.30;;;2.10;;
12519;SDS011;6325;49.540;8.364;2023-05-07T06:36:45;2.10;;;2.00;;
12519;SDS011;6325;49.540;8.364;2023-05-07T06:39:12;2.00;;;1.90;;
12519;SDS011;6325;49.540;8.364;2023-05-07T06:41:39;2.40;;;2.20;;
12519;SDS011;6325;49.540;8.364;2023-05-07T06:44:06;2.03;;;1.92;;
12519;SDS011;6325;49.540;8.364;2023-05-07T06:46:33;2.17;;;2.00;;
12519;SDS011;6325;49.540;8.364;2023-05-07T06:48:59;2.10;;;2.00;;
12519;SDS011;6325;49.540;8.364;2023-05-07T06:51:28;2.20;;;2.00;;
12519;SDS011;6325;49.540;8.364;2023-05-07T06:53:55;2.00;;;1.90;;
12519;SDS011;6325;49.540;8.364;2023-05-07T06:56:21;2.22;;;2.13;;
12519;SDS011;6325;49.540;8.364;2023-05-07T06:58:49;2.92;;;2.28;;
12519;SDS011;6325;49.540;8.364;2023-05-07T07:01:16;2.15;;;2.03;;
12519;SDS011;6325;49.540;8.364;2023-05-07T07:03:42;2.08;;;1.95;;
12519;SDS011;6325;49.540;8.364;2023-05-07T07:06:09;2.30;;;2.10;;
12519;SDS011;6325;49.540;8.364;2023-05-07T07:08:37;2.05;;;1.95;;
12519;SDS011;6325;49.540;8.364;2023-05-07T07:11:04;2.20;;;2.00;;
12519;SDS011;6325;49.540;8.364;2023-05-07T07:13:31;2.00;;;1.90;;
12519;SDS011;6325;49.540;8.364;2023-05-07T07:15:58;2.20;;;2.10;;
12519;SDS011;6325;49.540;8.364;2023-05-07T07:18:25;2.50;;;2.30;;
12519;SDS011;6325;49.540;8.364;2023-05-07T07:20:52;1.90;;;1.80;;
12519;SDS011;6325;49.540;8.364;2023-05-07T07:23:19;2.35;;;2.17;;
12519;SDS011;6325;49.540;8.364;2023-05-07T07:25:48;2.10;;;2.00;;
12519;SDS011;6325;49.540;8.364;2023-05-07T07:28:14;2.10;;;2.00;;
12519;SDS011;6325;49.540;8.364;2023-05-07T07:30:41;2.20;;;2.00;;
12519;SDS011;6325;49.540;8.364;2023-05-07T07:33:08;2.30;;;2.10;;
12519;SDS011;6325;49.540;8.364;2023-05-07T07:35:35;2.05;;;1.95;;
12519;SDS011;6325;49.540;8.364;2023-05-07T07:38:01;2.40;;;2.25;;
12519;SDS011;6325;49.540;8.364;2023-05-07T07:40:28;2.20;;;2.10;;
12519;SDS011;6325;49.540;8.364;2023-05-07T07:42:56;2.13;;;2.03;;
12519;SDS011;6325;49.540;8.364;2023-05-07T07:45:23;2.38;;;2.03;;
12519;SDS011;6325;49.540;8.364;2023-05-07T07:47:50;2.15;;;2.05;;
12519;SDS011;6325;49.540;8.364;2023-05-07T07:50:17;2.10;;;2.00;;
12519;SDS011;6325;49.540;8.364;2023-05-07T07:52:44;2.30;;;2.10;;
12519;SDS011;6325;49.540;8.364;2023-05-07T07:55:10;2.38;;;2.17;;
12519;SDS011;6325;49.540;8.364;2023-05-07T07:57:37;2.30;;;2.20;;
12519;SDS011;6325;49.540;8.364;2023-05-07T08:00:06;2.20;;;2.10;;
12519;SDS011;6325;49.540;8.364;2023-05-07T08:02:34;1.90;;;1.80;;
12519;SDS011;6325;49.540;8.364;2023-05-07T08:05:02;1.95;;;1.85;;
12519;SDS011;6325;49.540;8.364;2023-05-07T08:07:29;1.80;;;1.70;;
12519;SDS011;6325;49.540;8.364;2023-05-07T08:09:56;1.92;;;1.83;;
12519;SDS011;6325;49.540;8.364;2023-05-07T08:12:23;1.80;;;1.70;;
12519;SDS011;6325;49.540;8.364;2023-05-07T08:14:50;1.83;;;1.73;;
12519;SDS011;6325;49.540;8.364;2023-05-07T08:17:18;1.60;;;1.60;;
12519;SDS011;6325;49.540;8.364;2023-05-07T08:19:47;2.00;;;1.90;;
12519;SDS011;6325;49.540;8.364;2023-05-07T08:22:13;2.30;;;2.20;;
12519;SDS011;6325;49.540;8.364;2023-05-07T08:24:40;2.17;;;2.08;;
12519;SDS011;6325;49.540;8.364;2023-05-07T08:27:07;2.00;;;1.90;;
12519;SDS011;6325;49.540;8.364;2023-05-07T08:29:34;2.10;;;2.00;;
12519;SDS011;6325;49.540;8.364;2023-05-07T08:32:00;2.08;;;1.98;;
12519;SDS011;6325;49.540;8.364;2023-05-07T08:34:29;2.00;;;1.90;;
12519;SDS011;6325;49.540;8.364;2023-05-07T08:36:56;2.37;;;2.17;;
12519;SDS011;6325;49.540;8.364;2023-05-07T08:39:22;2.30;;;2.07;;
12519;SDS011;6325;49.540;8.364;2023-05-07T08:41:49;2.20;;;2.10;;
12519;SDS011;6325;49.540;8.364;2023-05-07T08:44:20;2.28;;;2.17;;
12519;SDS011;6325;49.540;8.364;2023-05-07T08:46:52;2.10;;;2.00;;
12519;SDS011;6325;49.540;8.364;2023-05-07T08:49:21;2.30;;;2.10;;
12519;SDS011;6325;49.540;8.364;2023-05-07T08:51:50;2.20;;;2.10;;
12519;SDS011;6325;49.540;8.364;2023-05-07T08:54:16;2.13;;;2.03;;
12519;SDS011;6325;49.540;8.364;2023-05-07T08:56:44;2.10;;;2.00;;
12519;SDS011;6325;49.540;8.364;2023-05-07T08:59:11;2.15;;;2.05;;
12519;SDS011;6325;49.540;8.364;2023-05-07T09:01:38;2.50;;;2.30;;
12519;SDS011;6325;49.540;8.364;2023-05-07T09:04:05;2.35;;;2.25;;
12519;SDS011;6325;49.540;8.364;2023-05-07T09:06:32;2.10;;;2.00;;
12519;SDS011;6325;49.540;8.364;2023-05-07T09:09:01;1.95;;;1.85;;
12519;SDS011;6325;49.540;8.364;2023-05-07T09:11:30;1.85;;;1.70;;
12519;SDS011;6325;49.540;8.364;2023-05-07T09:13:57;1.95;;;1.85;;
12519;SDS011;6325;49.540;8.364;2023-05-07T09:16:26;2.03;;;1.92;;
12519;SDS011;6325;49.540;8.364;2023-05-07T09:18:56;1.93;;;1.80;;
12519;SDS011;6325;49.540;8.364;2023-05-07T09:21:24;2.00;;;1.90;;
12519;SDS011;6325;49.540;8.364;2023-05-07T09:23:51;1.95;;;1.85;;
12519;SDS011;6325;49.540;8.364;2023-05-07T09:26:22;1.80;;;1.70;;
12519;SDS011;6325;49.540;8.364;2023-05-07T09:28:49;1.90;;;1.80;;
12519;SDS011;6325;49.540;8.364;2023-05-07T09:31:16;1.50;;;1.50;;
12519;SDS011;6325;49.540;8.364;2023-05-07T09:33:43;1.27;;;1.27;;
12519;SDS011;6325;49.540;8.364;2023-05-07T09:36:10;1.50;;;1.40;;
12519;SDS011;6325;49.540;8.364;2023-05-07T09:38:37;2.88;;;1.27;;
12519;SDS011;6325;49.540;8.364;2023-05-07T09:41:05;1.35;;;1.35;;
12519;SDS011;6325;49.540;8.364;2023-05-07T09:43:34;1.17;;;1.10;;
12519;SDS011;6325;49.540;8.364;2023-05-07T09:46:03;1.50;;;1.30;;
12519;SDS011;6325;49.540;8.364;2023-05-07T09:48:35;1.20;;;1.20;;
12519;SDS011;6325;49.540;8.364;2023-05-07T09:51:06;1.30;;;1.23;;
12519;SDS011;6325;49.540;8.364;2023-05-07T09:53:39;1.50;;;1.30;;
12519;SDS011;6325;49.540;8.364;2023-05-07T09:56:06;1.33;;;1.33;;
12519;SDS011;6325;49.540;8.364;2023-05-07T09:58:35;1.35;;;1.25;;
12519;SDS011;6325;49.540;8.364;2023-05-07T10:01:04;1.40;;;1.30;;
12519;SDS011;6325;49.540;8.364;2023-05-07T10:03:31;1.50;;;1.40;;
12519;SDS011;6325;49.540;8.364;2023-05-07T10:06:01;1.10;;;1.10;;
12519;SDS011;6325;49.540;8.364;2023-05-07T10:08:29;1.27;;;1.20;;
12519;SDS011;6325;49.540;8.364;2023-05-07T10:10:57;1.30;;;1.20;;
12519;SDS011;6325;49.540;8.364;2023-05-07T10:13:25;1.70;;;1.60;;
12519;SDS011;6325;49.540;8.364;2023-05-07T10:15:54;1.30;;;1.30;;
12519;SDS011;6325;49.540;8.364;2023-05-07T10:18:21;1.43;;;1.33;;
12519;SDS011;6325;49.540;8.364;2023-05-07T10:20:54;1.45;;;1.38;;
12519;SDS011;6325;49.540;8.364;2023-05-07T10:23:25;1.20;;;1.20;;
12519;SDS011;6325;49.540;8.364;2023-05-07T10:25:59;1.20;;;1.20;;
12519;SDS011;6325;49.540;8.364;2023-05-07T10:28:30;1.40;;;1.30;;
12519;SDS011;6325;49.540;8.364;2023-05-07T10:31:23;1.50;;;1.40;;
12519;SDS011;6325;49.540;8.364;2023-05-07T10:34:11;1.10;;;1.10;;
12519;SDS011;6325;49.540;8.364;2023-05-07T10:36:47;1.40;;;1.30;;
12519;SDS011;6325;49.540;8.364;2023-05-07T10:39:17;1.67;;;1.30;;
12519;SDS011;6325;49.540;8.364;2023-05-07T10:41:47;1.40;;;1.40;;
12519;SDS011;6325;49.540;8.364;2023-05-07T10:44:24;1.70;;;1.50;;
12519;SDS011;6325;49.540;8.364;2023-05-07T10:52:44;1.60;;;1.50;;
12519;SDS011;6325;49.540;8.364;2023-05-07T10:55:20;1.40;;;1.30;;
12519;SDS011;6325;49.540;8.364;2023-05-07T10:57:50;1.63;;;1.53;;
12519;SDS011;6325;49.540;8.364;2023-05-07T11:03:09;1.60;;;1.50;;
12519;SDS011;6325;49.540;8.364;2023-05-07T11:05:37;1.60;;;1.50;;
12519;SDS011;6325;49.540;8.364;2023-05-07T11:08:04;1.67;;;1.58;;
12519;SDS011;6325;49.540;8.364;2023-05-07T11:10:47;1.30;;;1.30;;
12519;SDS011;6325;49.540;8.364;2023-05-07T11:13:15;1.40;;;1.40;;
12519;SDS011;6325;49.540;8.364;2023-05-07T11:15:43;1.30;;;1.30;;
12519;SDS011;6325;49.540;8.364;2023-05-07T11:18:14;1.20;;;1.20;;
12519;SDS011;6325;49.540;8.364;2023-05-07T11:20:52;1.48;;;1.38;;
12519;SDS011;6325;49.540;8.364;2023-05-07T11:26:41;1.48;;;1.38;;
12519;SDS011;6325;49.540;8.364;2023-05-07T11:29:13;1.40;;;1.30;;
12519;SDS011;6325;49.540;8.364;2023-05-07T11:31:41;1.23;;;1.20;;
12519;SDS011;6325;49.540;8.364;2023-05-07T11:34:10;1.30;;;1.27;;
12519;SDS011;6325;49.540;8.364;2023-05-07T11:36:41;1.20;;;1.20;;
12519;SDS011;6325;49.540;8.364;2023-05-07T11:39:27;1.20;;;1.10;;
12519;SDS011;6325;49.540;8.364;2023-05-07T11:41:56;1.63;;;1.40;;
12519;SDS011;6325;49.540;8.364;2023-05-07T11:44:23;1.20;;;1.20;;
12519;SDS011;6325;49.540;8.364;2023-05-07T11:46:50;1.88;;;1.27;;
12519;SDS011;6325;49.540;8.364;2023-05-07T11:49:18;1.30;;;1.30;;
12519;SDS011;6325;49.540;8.364;2023-05-07T11:51:45;1.30;;;1.20;;
12519;SDS011;6325;49.540;8.364;2023-05-07T11:54:15;1.30;;;1.30;;
12519;SDS011;6325;49.540;8.364;2023-05-07T11:56:43;1.30;;;1.20;;
12519;SDS011;6325;49.540;8.364;2023-05-07T11:59:11;1.42;;;1.10;;
12519;SDS011;6325;49.540;8.364;2023-05-07T12:01:37;1.60;;;1.30;;
12519;SDS011;6325;49.540;8.364;2023-05-07T12:04:04;1.27;;;1.20;;
12519;SDS011;6325;49.540;8.364;2023-05-07T12:06:35;1.10;;;1.05;;
12519;SDS011;6325;49.540;8.364;2023-05-07T12:09:02;1.10;;;1.10;;
12519;SDS011;6325;49.540;8.364;2023-05-07T12:11:32;1.10;;;1.10;;
12519;SDS011;6325;49.540;8.364;2023-05-07T12:13:58;1.52;;;1.02;;
12519;SDS011;6325;49.540;8.364;2023-05-07T12:16:25;1.08;;;1.00;;
12519;SDS011;6325;49.540;8.364;2023-05-07T12:18:53;1.75;;;1.20;;
12519;SDS011;6325;49.540;8.364;2023-05-07T12:21:20;0.93;;;0.93;;
12519;SDS011;6325;49.540;8.364;2023-05-07T12:23:49;1.10;;;1.10;;
12519;SDS011;6325;49.540;8.364;2023-05-07T12:26:16;1.00;;;1.00;;
12519;SDS011;6325;49.540;8.364;2023-05-07T12:28:45;1.00;;;1.00;;
12519;SDS011;6325;49.540;8.364;2023-05-07T12:31:13;1.00;;;1.00;;
12519;SDS011;6325;49.540;8.364;2023-05-07T12:33:40;1.20;;;1.10;;
12519;SDS011;6325;49.540;8.364;2023-05-07T12:36:08;1.00;;;1.00;;
12519;SDS011;6325;49.540;8.364;2023-05-07T12:38:38;1.40;;;1.30;;
12519;SDS011;6325;49.540;8.364;2023-05-07T12:41:08;0.93;;;0.93;;
12519;SDS011;6325;49.540;8.364;2023-05-07T12:43:36;1.30;;;1.20;;
12519;SDS011;6325;49.540;8.364;2023-05-07T12:46:04;1.07;;;1.07;;
12519;SDS011;6325;49.540;8.364;2023-05-07T12:48:33;1.17;;;1.02;;
12519;SDS011;6325;49.540;8.364;2023-05-07T12:51:05;1.50;;;1.20;;
12519;SDS011;6325;49.540;8.364;2023-05-07T12:53:39;1.00;;;1.00;;
12519;SDS011;6325;49.540;8.364;2023-05-07T12:56:08;1.20;;;1.20;;
12519;SDS011;6325;49.540;8.364;2023-05-07T12:58:37;1.30;;;1.30;;
12519;SDS011;6325;49.540;8.364;2023-05-07T13:01:04;1.10;;;1.10;;
12519;SDS011;6325;49.540;8.364;2023-05-07T13:03:32;1.08;;;1.08;;
12519;SDS011;6325;49.540;8.364;2023-05-07T13:06:01;1.40;;;1.23;;
12519;SDS011;6325;49.540;8.364;2023-05-07T13:08:30;1.42;;;1.30;;
12519;SDS011;6325;49.540;8.364;2023-05-07T13:10:58;1.40;;;1.30;;
12519;SDS011;6325;49.540;8.364;2023-05-07T13:13:29;1.25;;;1.25;;
12519;SDS011;6325;49.540;8.364;2023-05-07T13:15:56;1.50;;;1.40;;
12519;SDS011;6325;49.540;8.364;2023-05-07T13:18:24;1.20;;;1.20;;
12519;SDS011;6325;49.540;8.364;2023-05-07T13:20:51;1.35;;;1.25;;
12519;SDS011;6325;49.540;8.364;2023-05-07T13:23:20;1.20;;;1.20;;
12519;SDS011;6325;49.540;8.364;2023-05-07T13:25:47;1.80;;;1.70;;
12519;SDS011;6325;49.540;8.364;2023-05-07T13:28:14;1.52;;;1.30;;
12519;SDS011;6325;49.540;8.364;2023-05-07T13:30:43;1.55;;;1.50;;
12519;SDS011;6325;49.540;8.364;2023-05-07T13:33:10;1.30;;;1.30;;
12519;SDS011;6325;49.540;8.364;2023-05-07T13:35:37;1.67;;;1.40;;
12519;SDS011;6325;49.540;8.364;2023-05-07T13:38:04;1.40;;;1.40;;
12519;SDS011;6325;49.540;8.364;2023-05-07T13:40:31;1.70;;;1.60;;
12519;SDS011;6325;49.540;8.364;2023-05-07T13:42:58;1.50;;;1.40;;
12519;SDS011;6325;49.540;8.364;2023-05-07T13:45:27;1.70;;;1.60;;
12519;SDS011;6325;49.540;8.364;2023-05-07T13:47:56;1.67;;;1.57;;
12519;SDS011;6325;49.540;8.364;2023-05-07T13:50:24;2.53;;;1.67;;
12519;SDS011;6325;49.540;8.364;2023-05-07T13:52:54;3.65;;;1.80;;
12519;SDS011;6325;49.540;8.364;2023-05-07T13:55:21;2.88;;;2.00;;
12519;SDS011;6325;49.540;8.364;2023-05-07T13:57:54;2.17;;;1.98;;
12519;SDS011;6325;49.540;8.364;2023-05-07T14:00:21;2.60;;;1.90;;
12519;SDS011;6325;49.540;8.364;2023-05-07T14:02:48;2.40;;;1.80;;
12519;SDS011;6325;49.540;8.364;2023-05-07T14:05:17;1.83;;;1.73;;
12519;SDS011;6325;49.540;8.364;2023-05-07T14:07:44;2.13;;;1.90;;
12519;SDS011;6325;49.540;8.364;2023-05-07T14:10:10;2.30;;;1.80;;
12519;SDS011;6325;49.540;8.364;2023-05-07T14:12:38;1.80;;;1.70;;
12519;SDS011;6325;49.540;8.364;2023-05-07T14:15:05;2.13;;;2.00;;
12519;SDS011;6325;49.540;8.364;2023-05-07T14:17:33;2.28;;;2.03;;
12519;SDS011;6325;49.540;8.364;2023-05-07T14:20:00;2.03;;;1.92;;
12519;SDS011;6325;49.540;8.364;2023-05-07T14:22:28;2.08;;;1.98;;
12519;SDS011;6325;49.540;8.364;2023-05-07T14:24:55;1.98;;;1.88;;
12519;SDS011;6325;49.540;8.364;2023-05-07T14:27:22;2.40;;;2.20;;
12519;SDS011;6325;49.540;8.364;2023-05-07T14:29:49;2.70;;;2.50;;
12519;SDS011;6325;49.540;8.364;2023-05-07T14:32:16;3.17;;;2.97;;
12519;SDS011;6325;49.540;8.364;2023-05-07T14:34:44;3.53;;;3.33;;
12519;SDS011;6325;49.540;8.364;2023-05-07T14:37:11;4.15;;;3.75;;
12519;SDS011;6325;49.540;8.364;2023-05-07T14:39:39;4.10;;;3.80;;
12519;SDS011;6325;49.540;8.364;2023-05-07T14:42:06;4.20;;;3.90;;
12519;SDS011;6325;49.540;8.364;2023-05-07T14:44:34;3.30;;;3.10;;
12519;SDS011;6325;49.540;8.364;2023-05-07T14:47:01;3.35;;;3.05;;
12519;SDS011;6325;49.540;8.364;2023-05-07T14:49:27;3.15;;;2.95;;
12519;SDS011;6325;49.540;8.364;2023-05-07T14:51:56;6.60;;;5.53;;
12519;SDS011;6325;49.540;8.364;2023-05-07T14:54:24;4.43;;;4.03;;
12519;SDS011;6325;49.540;8.364;2023-05-07T14:56:52;3.83;;;3.53;;
12519;SDS011;6325;49.540;8.364;2023-05-07T14:59:19;3.78;;;2.85;;
12519;SDS011;6325;49.540;8.364;2023-05-07T15:01:46;3.37;;;3.07;;
12519;SDS011;6325;49.540;8.364;2023-05-07T15:04:14;4.20;;;3.72;;
12519;SDS011;6325;49.540;8.364;2023-05-07T15:06:40;3.40;;;3.13;;
12519;SDS011;6325;49.540;8.364;2023-05-07T15:09:07;2.63;;;2.47;;
12519;SDS011;6325;49.540;8.364;2023-05-07T15:11:34;3.35;;;3.05;;
12519;SDS011;6325;49.540;8.364;2023-05-07T15:14:02;4.70;;;4.28;;
12519;SDS011;6325;49.540;8.364;2023-05-07T15:16:29;3.63;;;3.15;;